Weather at Panicharevo Airstrip

Public forecast

Using degrees Celsius for public forecast. Weather courtesy of forecast.io.

Closest aviation weather report (METAR) to Panicharevo Airstrip

Closest report is Sofia Airport, 31.4 nm (58.1 km) NE. Retrieved 2022/06/30 13:00 UTC (16 minutes ago):

LBSF 301300Z 14006KT 110V170 9999 FEW077 31/12 Q1015 NOSIG

Closest aviation forecast (TAF) to Panicharevo Airstrip

Closest forecast is Sofia Airport, 31.4 nm (58.1 km) NE. Retrieved 2022/06/30 12:18 UTC (58 minutes ago):

TAF LBSF 301100Z 3012/0112 09010KT CAVOK BECMG 3020/3022 VRB04KT BECMG 0109/0111 08010KT